sensor_id;sensor_type;location;lat;lon;timestamp;pressure;altitude;pressure_sealevel;temperature
68745;BMP180;65497;45.454;11.064;2022-12-07T00:01:28;100667.80;;;5.70
68745;BMP180;65497;45.454;11.064;2022-12-07T00:04:04;100667.40;;;5.70
68745;BMP180;65497;45.454;11.064;2022-12-07T00:06:40;100662.00;;;5.78
68745;BMP180;65497;45.454;11.064;2022-12-07T00:09:17;100652.80;;;5.70
68745;BMP180;65497;45.454;11.064;2022-12-07T00:11:52;100659.20;;;5.70
68745;BMP180;65497;45.454;11.064;2022-12-07T00:14:25;100653.80;;;5.70
68745;BMP180;65497;45.454;11.064;2022-12-07T00:16:58;100652.60;;;5.50
68745;BMP180;65497;45.454;11.064;2022-12-07T00:19:31;100646.80;;;5.40
68745;BMP180;65497;45.454;11.064;2022-12-07T00:22:04;100642.80;;;5.34
68745;BMP180;65497;45.454;11.064;2022-12-07T00:24:37;100646.20;;;5.30
68745;BMP180;65497;45.454;11.064;2022-12-07T00:27:11;100639.40;;;5.36
68745;BMP180;65497;45.454;11.064;2022-12-07T00:29:44;100631.40;;;5.40
68745;BMP180;65497;45.454;11.064;2022-12-07T00:32:17;100623.20;;;5.40
68745;BMP180;65497;45.454;11.064;2022-12-07T00:34:50;100620.20;;;5.40
68745;BMP180;65497;45.454;11.064;2022-12-07T00:37:24;100617.00;;;5.28
68745;BMP180;65497;45.454;11.064;2022-12-07T00:39:57;100624.80;;;5.10
68745;BMP180;65497;45.454;11.064;2022-12-07T00:42:31;100620.40;;;5.00
68745;BMP180;65497;45.454;11.064;2022-12-07T00:45:05;100630.40;;;4.96
68745;BMP180;65497;45.454;11.064;2022-12-07T00:47:38;100630.60;;;4.80
68745;BMP180;65497;45.454;11.064;2022-12-07T00:50:11;100644.40;;;4.60
68745;BMP180;65497;45.454;11.064;2022-12-07T00:52:45;100636.40;;;4.30
68745;BMP180;65497;45.454;11.064;2022-12-07T00:55:18;100646.20;;;4.20
68745;BMP180;65497;45.454;11.064;2022-12-07T00:57:51;100652.00;;;4.14
68745;BMP180;65497;45.454;11.064;2022-12-07T01:00:23;100657.40;;;4.10
68745;BMP180;65497;45.454;11.064;2022-12-07T01:02:57;100656.40;;;4.10
68745;BMP180;65497;45.454;11.064;2022-12-07T01:05:30;100654.20;;;4.04
68745;BMP180;65497;45.454;11.064;2022-12-07T01:08:03;100653.80;;;4.02
68745;BMP180;65497;45.454;11.064;2022-12-07T01:10:36;100648.40;;;4.00
68745;BMP180;65497;45.454;11.064;2022-12-07T01:13:10;100648.60;;;4.00
68745;BMP180;65497;45.454;11.064;2022-12-07T01:15:44;100649.20;;;4.06
68745;BMP180;65497;45.454;11.064;2022-12-07T01:18:17;100653.40;;;4.10
68745;BMP180;65497;45.454;11.064;2022-12-07T01:21:02;100658.40;;;4.10
68745;BMP180;65497;45.454;11.064;2022-12-07T01:23:37;100668.40;;;4.10
68745;BMP180;65497;45.454;11.064;2022-12-07T01:26:14;100662.20;;;4.10
68745;BMP180;65497;45.454;11.064;2022-12-07T01:28:48;100665.20;;;4.10
68745;BMP180;65497;45.454;11.064;2022-12-07T01:31:23;100658.80;;;4.02
68745;BMP180;65497;45.454;11.064;2022-12-07T01:33:59;100661.40;;;4.00
68745;BMP180;65497;45.454;11.064;2022-12-07T01:36:34;100662.20;;;4.06
68745;BMP180;65497;45.454;11.064;2022-12-07T01:39:10;100665.80;;;4.10
68745;BMP180;65497;45.454;11.064;2022-12-07T01:41:44;100660.60;;;4.10
68745;BMP180;65497;45.454;11.064;2022-12-07T01:44:21;100653.80;;;4.10
68745;BMP180;65497;45.454;11.064;2022-12-07T01:46:57;100654.80;;;4.10
68745;BMP180;65497;45.454;11.064;2022-12-07T01:49:34;100649.20;;;4.10
68745;BMP180;65497;45.454;11.064;2022-12-07T01:52:16;100652.80;;;4.10
68745;BMP180;65497;45.454;11.064;2022-12-07T01:54:56;100654.80;;;4.10
68745;BMP180;65497;45.454;11.064;2022-12-07T01:57:32;100652.80;;;4.10
68745;BMP180;65497;45.454;11.064;2022-12-07T02:00:10;100653.40;;;4.10
68745;BMP180;65497;45.454;11.064;2022-12-07T02:02:49;100649.40;;;4.08
68745;BMP180;65497;45.454;11.064;2022-12-07T02:05:25;100645.00;;;4.00
68745;BMP180;65497;45.454;11.064;2022-12-07T02:08:00;100636.40;;;3.90
68745;BMP180;65497;45.454;11.064;2022-12-07T02:10:35;100627.20;;;3.90
68745;BMP180;65497;45.454;11.064;2022-12-07T02:13:12;100635.00;;;3.98
68745;BMP180;65497;45.454;11.064;2022-12-07T02:16:08;100644.60;;;4.04
68745;BMP180;65497;45.454;11.064;2022-12-07T02:18:57;100636.40;;;4.10
68745;BMP180;65497;45.454;11.064;2022-12-07T02:21:42;100631.20;;;4.12
68745;BMP180;65497;45.454;11.064;2022-12-07T02:24:35;100640.60;;;4.18
68745;BMP180;65497;45.454;11.064;2022-12-07T02:27:29;100633.20;;;4.20
68745;BMP180;65497;45.454;11.064;2022-12-07T02:43:43;100630.60;;;3.80
68745;BMP180;65497;45.454;11.064;2022-12-07T02:46:23;100628.60;;;3.80
68745;BMP180;65497;45.454;11.064;2022-12-07T02:48:58;100628.80;;;3.80
68745;BMP180;65497;45.454;11.064;2022-12-07T02:51:38;100625.20;;;3.72
68745;BMP180;65497;45.454;11.064;2022-12-07T02:54:15;100617.60;;;3.76
68745;BMP180;65497;45.454;11.064;2022-12-07T02:56:55;100620.40;;;3.80
68745;BMP180;65497;45.454;11.064;2022-12-07T02:59:45;100620.80;;;3.80
68745;BMP180;65497;45.454;11.064;2022-12-07T03:02:31;100615.60;;;3.90
68745;BMP180;65497;45.454;11.064;2022-12-07T03:05:26;100611.60;;;3.92
68745;BMP180;65497;45.454;11.064;2022-12-07T03:08:10;100612.20;;;3.92
68745;BMP180;65497;45.454;11.064;2022-12-07T03:10:56;100609.40;;;4.00
68745;BMP180;65497;45.454;11.064;2022-12-07T03:13:35;100612.40;;;4.10
68745;BMP180;65497;45.454;11.064;2022-12-07T03:16:17;100611.00;;;4.10
68745;BMP180;65497;45.454;11.064;2022-12-07T03:18:58;100604.80;;;4.20
68745;BMP180;65497;45.454;11.064;2022-12-07T03:21:38;100602.00;;;4.20
68745;BMP180;65497;45.454;11.064;2022-12-07T03:24:15;100601.40;;;4.08
68745;BMP180;65497;45.454;11.064;2022-12-07T03:26:54;100597.60;;;3.90
68745;BMP180;65497;45.454;11.064;2022-12-07T03:29:33;100596.20;;;3.80
68745;BMP180;65497;45.454;11.064;2022-12-07T03:32:13;100597.20;;;3.60
68745;BMP180;65497;45.454;11.064;2022-12-07T03:34:51;100592.20;;;3.50
68745;BMP180;65497;45.454;11.064;2022-12-07T03:37:34;100591.60;;;3.40
68745;BMP180;65497;45.454;11.064;2022-12-07T03:40:14;100599.20;;;3.40
68745;BMP180;65497;45.454;11.064;2022-12-07T03:42:50;100602.80;;;3.26
68745;BMP180;65497;45.454;11.064;2022-12-07T03:45:29;100606.80;;;3.20
68745;BMP180;65497;45.454;11.064;2022-12-07T03:48:10;100599.80;;;3.00
68745;BMP180;65497;45.454;11.064;2022-12-07T03:50:54;100596.40;;;3.00
68745;BMP180;65497;45.454;11.064;2022-12-07T03:53:37;100591.80;;;3.00
68745;BMP180;65497;45.454;11.064;2022-12-07T03:56:12;100593.20;;;3.00
68745;BMP180;65497;45.454;11.064;2022-12-07T03:58:47;100579.00;;;3.00
68745;BMP180;65497;45.454;11.064;2022-12-07T04:01:22;100575.00;;;3.00
68745;BMP180;65497;45.454;11.064;2022-12-07T04:03:54;100577.80;;;3.00
68745;BMP180;65497;45.454;11.064;2022-12-07T04:06:27;100576.00;;;3.00
68745;BMP180;65497;45.454;11.064;2022-12-07T04:09:00;100573.40;;;3.10
68745;BMP180;65497;45.454;11.064;2022-12-07T04:11:32;100569.20;;;3.12
68745;BMP180;65497;45.454;11.064;2022-12-07T04:14:05;100561.00;;;3.20
68745;BMP180;65497;45.454;11.064;2022-12-07T04:16:56;100561.40;;;3.20
68745;BMP180;65497;45.454;11.064;2022-12-07T04:19:32;100561.00;;;3.22
68745;BMP180;65497;45.454;11.064;2022-12-07T04:22:07;100562.00;;;3.34
68745;BMP180;65497;45.454;11.064;2022-12-07T04:24:40;100557.80;;;3.40
68745;BMP180;65497;45.454;11.064;2022-12-07T04:27:13;100557.20;;;3.50
68745;BMP180;65497;45.454;11.064;2022-12-07T04:29:46;100561.20;;;3.56
68745;BMP180;65497;45.454;11.064;2022-12-07T04:32:19;100560.00;;;3.50
68745;BMP180;65497;45.454;11.064;2022-12-07T04:34:53;100561.40;;;3.44
68745;BMP180;65497;45.454;11.064;2022-12-07T04:37:26;100561.80;;;3.40
68745;BMP180;65497;45.454;11.064;2022-12-07T04:39:59;100554.80;;;3.32
68745;BMP180;65497;45.454;11.064;2022-12-07T04:42:32;100550.60;;;3.40
68745;BMP180;65497;45.454;11.064;2022-12-07T04:45:08;100548.40;;;3.40
68745;BMP180;65497;45.454;11.064;2022-12-07T04:47:41;100553.60;;;3.40
68745;BMP180;65497;45.454;11.064;2022-12-07T04:50:14;100556.80;;;3.50
68745;BMP180;65497;45.454;11.064;2022-12-07T04:52:47;100556.00;;;3.44
68745;BMP180;65497;45.454;11.064;2022-12-07T04:55:20;100562.40;;;3.38
68745;BMP180;65497;45.454;11.064;2022-12-07T04:57:52;100559.60;;;3.20
68745;BMP180;65497;45.454;11.064;2022-12-07T05:00:25;100568.20;;;3.10
68745;BMP180;65497;45.454;11.064;2022-12-07T05:02:59;100567.60;;;3.00
68745;BMP180;65497;45.454;11.064;2022-12-07T05:05:31;100562.60;;;3.00
68745;BMP180;65497;45.454;11.064;2022-12-07T05:08:05;100564.00;;;3.00
68745;BMP180;65497;45.454;11.064;2022-12-07T05:10:38;100573.00;;;2.92
68745;BMP180;65497;45.454;11.064;2022-12-07T05:13:10;100572.80;;;2.80
68745;BMP180;65497;45.454;11.064;2022-12-07T05:15:43;100558.40;;;2.80
68745;BMP180;65497;45.454;11.064;2022-12-07T05:18:17;100565.40;;;2.70
68745;BMP180;65497;45.454;11.064;2022-12-07T05:20:50;100561.60;;;2.60
68745;BMP180;65497;45.454;11.064;2022-12-07T05:23:23;100564.40;;;2.60
68745;BMP180;65497;45.454;11.064;2022-12-07T05:25:55;100566.00;;;2.60
68745;BMP180;65497;45.454;11.064;2022-12-07T05:28:28;100569.40;;;2.50
68745;BMP180;65497;45.454;11.064;2022-12-07T05:31:01;100568.40;;;2.40
68745;BMP180;65497;45.454;11.064;2022-12-07T05:33:34;100562.20;;;2.40
68745;BMP180;65497;45.454;11.064;2022-12-07T05:36:08;100560.80;;;2.40
68745;BMP180;65497;45.454;11.064;2022-12-07T05:38:41;100569.40;;;2.40
68745;BMP180;65497;45.454;11.064;2022-12-07T05:41:17;100567.40;;;2.40
68745;BMP180;65497;45.454;11.064;2022-12-07T05:44:08;100560.20;;;2.40
68745;BMP180;65497;45.454;11.064;2022-12-07T05:46:41;100561.00;;;2.40
68745;BMP180;65497;45.454;11.064;2022-12-07T05:49:14;100566.00;;;2.40
68745;BMP180;65497;45.454;11.064;2022-12-07T05:51:47;100571.40;;;2.40
68745;BMP180;65497;45.454;11.064;2022-12-07T05:54:20;100564.80;;;2.50
68745;BMP180;65497;45.454;11.064;2022-12-07T05:56:52;100567.80;;;2.50
68745;BMP180;65497;45.454;11.064;2022-12-07T05:59:25;100571.00;;;2.60
68745;BMP180;65497;45.454;11.064;2022-12-07T06:02:01;100565.60;;;2.60
68745;BMP180;65497;45.454;11.064;2022-12-07T06:04:36;100565.80;;;2.60
68745;BMP180;65497;45.454;11.064;2022-12-07T06:07:10;100567.80;;;2.60
68745;BMP180;65497;45.454;11.064;2022-12-07T06:09:43;100563.60;;;2.68
68745;BMP180;65497;45.454;11.064;2022-12-07T06:12:18;100566.80;;;2.70
68745;BMP180;65497;45.454;11.064;2022-12-07T06:15:08;100566.20;;;2.60
68745;BMP180;65497;45.454;11.064;2022-12-07T06:17:41;100569.00;;;2.60
68745;BMP180;65497;45.454;11.064;2022-12-07T06:20:14;100573.80;;;2.60
68745;BMP180;65497;45.454;11.064;2022-12-07T06:22:47;100573.40;;;2.60
68745;BMP180;65497;45.454;11.064;2022-12-07T06:25:19;100569.60;;;2.60
68745;BMP180;65497;45.454;11.064;2022-12-07T06:27:52;100577.40;;;2.50
68745;BMP180;65497;45.454;11.064;2022-12-07T06:30:26;100579.40;;;2.50
68745;BMP180;65497;45.454;11.064;2022-12-07T06:32:59;100578.00;;;2.50
68745;BMP180;65497;45.454;11.064;2022-12-07T06:35:33;100580.80;;;2.50
68745;BMP180;65497;45.454;11.064;2022-12-07T06:38:05;100588.80;;;2.50
68745;BMP180;65497;45.454;11.064;2022-12-07T06:40:38;100589.60;;;2.50
68745;BMP180;65497;45.454;11.064;2022-12-07T06:43:11;100585.20;;;2.50
68745;BMP180;65497;45.454;11.064;2022-12-07T06:45:44;100589.00;;;2.48
68745;BMP180;65497;45.454;11.064;2022-12-07T06:48:17;100593.20;;;2.50
68745;BMP180;65497;45.454;11.064;2022-12-07T06:50:50;100586.40;;;2.60
68745;BMP180;65497;45.454;11.064;2022-12-07T06:53:25;100581.60;;;2.70
68745;BMP180;65497;45.454;11.064;2022-12-07T06:55:58;100587.20;;;2.80
68745;BMP180;65497;45.454;11.064;2022-12-07T06:58:30;100591.80;;;2.92
68745;BMP180;65497;45.454;11.064;2022-12-07T07:01:07;100590.40;;;3.00
68745;BMP180;65497;45.454;11.064;2022-12-07T07:03:40;100594.20;;;3.00
68745;BMP180;65497;45.454;11.064;2022-12-07T07:06:14;100596.20;;;3.00
68745;BMP180;65497;45.454;11.064;2022-12-07T07:08:47;100599.20;;;2.92
68745;BMP180;65497;45.454;11.064;2022-12-07T07:11:21;100599.00;;;2.80
68745;BMP180;65497;45.454;11.064;2022-12-07T07:13:54;100598.80;;;2.70
68745;BMP180;65497;45.454;11.064;2022-12-07T07:16:28;100593.60;;;2.60
68745;BMP180;65497;45.454;11.064;2022-12-07T07:19:02;100599.40;;;2.60
68745;BMP180;65497;45.454;11.064;2022-12-07T07:21:34;100600.60;;;2.58
68745;BMP180;65497;45.454;11.064;2022-12-07T07:24:10;100600.60;;;2.50
68745;BMP180;65497;45.454;11.064;2022-12-07T07:26:43;100602.40;;;2.50
68745;BMP180;65497;45.454;11.064;2022-12-07T07:29:16;100604.00;;;2.50
68745;BMP180;65497;45.454;11.064;2022-12-07T07:31:49;100602.40;;;2.50
68745;BMP180;65497;45.454;11.064;2022-12-07T07:34:22;100597.60;;;2.56
68745;BMP180;65497;45.454;11.064;2022-12-07T07:36:54;100592.60;;;2.70
68745;BMP180;65497;45.454;11.064;2022-12-07T07:39:27;100588.80;;;3.06
68745;BMP180;65497;45.454;11.064;2022-12-07T07:42:00;100584.20;;;3.90
68745;BMP180;65497;45.454;11.064;2022-12-07T07:44:36;100578.20;;;4.84
68745;BMP180;65497;45.454;11.064;2022-12-07T07:47:09;100579.40;;;5.56
68745;BMP180;65497;45.454;11.064;2022-12-07T07:49:42;100574.00;;;6.00
68745;BMP180;65497;45.454;11.064;2022-12-07T07:52:18;100574.20;;;6.30
68745;BMP180;65497;45.454;11.064;2022-12-07T07:54:50;100578.20;;;6.40
68745;BMP180;65497;45.454;11.064;2022-12-07T07:57:23;100588.60;;;6.48
68745;BMP180;65497;45.454;11.064;2022-12-07T07:59:56;100596.80;;;6.26
68745;BMP180;65497;45.454;11.064;2022-12-07T08:02:30;100599.80;;;5.90
68745;BMP180;65497;45.454;11.064;2022-12-07T08:05:03;100600.00;;;5.64
68745;BMP180;65497;45.454;11.064;2022-12-07T08:07:35;100597.80;;;5.50
68745;BMP180;65497;45.454;11.064;2022-12-07T08:10:11;100592.60;;;5.50
68745;BMP180;65497;45.454;11.064;2022-12-07T08:12:45;100593.00;;;5.52
68745;BMP180;65497;45.454;11.064;2022-12-07T08:15:38;100590.80;;;5.90
68745;BMP180;65497;45.454;11.064;2022-12-07T08:18:11;100586.00;;;6.42
68745;BMP180;65497;45.454;11.064;2022-12-07T08:20:45;100588.00;;;7.28
68745;BMP180;65497;45.454;11.064;2022-12-07T08:23:18;100575.20;;;8.06
68745;BMP180;65497;45.454;11.064;2022-12-07T08:26:01;100574.40;;;9.20
68745;BMP180;65497;45.454;11.064;2022-12-07T08:28:34;100570.40;;;10.24
68745;BMP180;65497;45.454;11.064;2022-12-07T08:31:10;100575.80;;;10.60
68745;BMP180;65497;45.454;11.064;2022-12-07T08:33:45;100574.60;;;11.10
68745;BMP180;65497;45.454;11.064;2022-12-07T08:36:18;100575.20;;;11.84
68745;BMP180;65497;45.454;11.064;2022-12-07T08:38:53;100577.20;;;12.44
68745;BMP180;65497;45.454;11.064;2022-12-07T08:41:45;100571.20;;;13.12
68745;BMP180;65497;45.454;11.064;2022-12-07T08:44:19;100570.40;;;13.66
68745;BMP180;65497;45.454;11.064;2022-12-07T08:46:55;100571.40;;;14.20
68745;BMP180;65497;45.454;11.064;2022-12-07T08:49:34;100573.20;;;14.86
68745;BMP180;65497;45.454;11.064;2022-12-07T08:52:09;100568.40;;;15.60
68745;BMP180;65497;45.454;11.064;2022-12-07T08:54:43;100568.00;;;15.78
68745;BMP180;65497;45.454;11.064;2022-12-07T08:57:16;100572.80;;;15.80
68745;BMP180;65497;45.454;11.064;2022-12-07T08:59:49;100575.00;;;16.02
68745;BMP180;65497;45.454;11.064;2022-12-07T09:02:22;100569.80;;;16.24
68745;BMP180;65497;45.454;11.064;2022-12-07T09:04:54;100569.20;;;16.38
68745;BMP180;65497;45.454;11.064;2022-12-07T09:07:27;100571.00;;;16.60
68745;BMP180;65497;45.454;11.064;2022-12-07T09:10:05;100565.00;;;16.60
68745;BMP180;65497;45.454;11.064;2022-12-07T09:12:37;100562.20;;;16.78
68745;BMP180;65497;45.454;11.064;2022-12-07T09:15:11;100563.00;;;17.18
68745;BMP180;65497;45.454;11.064;2022-12-07T09:17:44;100576.00;;;16.68
68745;BMP180;65497;45.454;11.064;2022-12-07T09:20:17;100578.20;;;15.82
68745;BMP180;65497;45.454;11.064;2022-12-07T09:22:57;100580.40;;;15.20
68745;BMP180;65497;45.454;11.064;2022-12-07T09:25:30;100594.40;;;14.34
68745;BMP180;65497;45.454;11.064;2022-12-07T09:28:03;100596.20;;;13.40
68745;BMP180;65497;45.454;11.064;2022-12-07T09:30:36;100599.20;;;12.66
68745;BMP180;65497;45.454;11.064;2022-12-07T09:33:29;100601.40;;;11.90
68745;BMP180;65497;45.454;11.064;2022-12-07T09:36:03;100602.60;;;11.40
68745;BMP180;65497;45.454;11.064;2022-12-07T09:38:36;100602.80;;;11.08
68745;BMP180;65497;45.454;11.064;2022-12-07T09:41:09;100609.60;;;10.68
68745;BMP180;65497;45.454;11.064;2022-12-07T09:43:43;100614.80;;;10.40
68745;BMP180;65497;45.454;11.064;2022-12-07T09:46:19;100605.00;;;10.10
68745;BMP180;65497;45.454;11.064;2022-12-07T09:48:54;100584.00;;;10.86
68745;BMP180;65497;45.454;11.064;2022-12-07T09:51:27;100579.60;;;11.90
68745;BMP180;65497;45.454;11.064;2022-12-07T09:54:01;100572.00;;;12.48
68745;BMP180;65497;45.454;11.064;2022-12-07T09:56:34;100565.20;;;13.12
68745;BMP180;65497;45.454;11.064;2022-12-07T09:59:12;100563.20;;;13.96
68745;BMP180;65497;45.454;11.064;2022-12-07T10:01:48;100559.00;;;14.68
68745;BMP180;65497;45.454;11.064;2022-12-07T10:04:23;100548.20;;;15.56
68745;BMP180;65497;45.454;11.064;2022-12-07T10:06:56;100544.20;;;16.36
68745;BMP180;65497;45.454;11.064;2022-12-07T10:09:29;100541.00;;;16.90
68745;BMP180;65497;45.454;11.064;2022-12-07T10:12:10;100538.00;;;17.34
68745;BMP180;65497;45.454;11.064;2022-12-07T10:14:58;100536.40;;;17.70
68745;BMP180;65497;45.454;11.064;2022-12-07T10:17:49;100531.40;;;17.86
68745;BMP180;65497;45.454;11.064;2022-12-07T10:20:28;100531.20;;;18.04
68745;BMP180;65497;45.454;11.064;2022-12-07T10:23:04;100533.40;;;18.50
68745;BMP180;65497;45.454;11.064;2022-12-07T10:25:39;100533.20;;;18.70
68745;BMP180;65497;45.454;11.064;2022-12-07T10:28:18;100533.40;;;18.82
68745;BMP180;65497;45.454;11.064;2022-12-07T10:30:55;100532.40;;;19.16
68745;BMP180;65497;45.454;11.064;2022-12-07T10:33:40;100535.00;;;19.30
68745;BMP180;65497;45.454;11.064;2022-12-07T10:36:24;100537.20;;;19.60
68745;BMP180;65497;45.454;11.064;2022-12-07T10:39:10;100535.40;;;19.56
68745;BMP180;65497;45.454;11.064;2022-12-07T10:41:57;100530.80;;;19.50
68745;BMP180;65497;45.454;11.064;2022-12-07T10:44:32;100525.40;;;19.60
68745;BMP180;65497;45.454;11.064;2022-12-07T10:47:31;100521.80;;;19.60
68745;BMP180;65497;45.454;11.064;2022-12-07T10:50:42;100513.80;;;19.36
68745;BMP180;65497;45.454;11.064;2022-12-07T10:53:49;100513.80;;;19.50
68745;BMP180;65497;45.454;11.064;2022-12-07T10:56:56;100513.40;;;19.60
68745;BMP180;65497;45.454;11.064;2022-12-07T10:59:55;100507.60;;;19.84
68745;BMP180;65497;45.454;11.064;2022-12-07T11:03:02;100508.00;;;20.00
68745;BMP180;65497;45.454;11.064;2022-12-07T11:05:48;100504.60;;;20.00
68745;BMP180;65497;45.454;11.064;2022-12-07T11:08:38;100510.40;;;20.20
68745;BMP180;65497;45.454;11.064;2022-12-07T11:11:22;100511.60;;;20.30
68745;BMP180;65497;45.454;11.064;2022-12-07T11:14:08;100508.60;;;20.22
68745;BMP180;65497;45.454;11.064;2022-12-07T11:16:58;100506.80;;;20.20
68745;BMP180;65497;45.454;11.064;2022-12-07T11:20:00;100509.00;;;20.30
68745;BMP180;65497;45.454;11.064;2022-12-07T11:22:44;100501.40;;;20.30
68745;BMP180;65497;45.454;11.064;2022-12-07T11:25:25;100500.20;;;20.20
68745;BMP180;65497;45.454;11.064;2022-12-07T11:28:18;100491.20;;;20.00
68745;BMP180;65497;45.454;11.064;2022-12-07T11:31:07;100487.40;;;20.00
68745;BMP180;65497;45.454;11.064;2022-12-07T11:33:49;100490.60;;;19.76
68745;BMP180;65497;45.454;11.064;2022-12-07T11:36:38;100492.80;;;19.90
68745;BMP180;65497;45.454;11.064;2022-12-07T11:39:25;100486.80;;;19.80
68745;BMP180;65497;45.454;11.064;2022-12-07T11:42:09;100487.80;;;19.80
68745;BMP180;65497;45.454;11.064;2022-12-07T11:44:53;100485.60;;;20.00
68745;BMP180;65497;45.454;11.064;2022-12-07T11:47:38;100487.20;;;20.10
68745;BMP180;65497;45.454;11.064;2022-12-07T11:50:27;100487.00;;;20.30
68745;BMP180;65497;45.454;11.064;2022-12-07T11:53:03;100486.40;;;20.46
68745;BMP180;65497;45.454;11.064;2022-12-07T11:55:48;100483.00;;;20.30
68745;BMP180;65497;45.454;11.064;2022-12-07T11:58:44;100484.00;;;20.24
68745;BMP180;65497;45.454;11.064;2022-12-07T12:01:35;100473.20;;;20.52
68745;BMP180;65497;45.454;11.064;2022-12-07T12:04:29;100464.00;;;20.40
68745;BMP180;65497;45.454;11.064;2022-12-07T12:07:05;100464.40;;;20.44
68745;BMP180;65497;45.454;11.064;2022-12-07T12:10:03;100464.00;;;20.60
68745;BMP180;65497;45.454;11.064;2022-12-07T12:13:05;100459.60;;;20.80
68745;BMP180;65497;45.454;11.064;2022-12-07T12:16:31;100458.20;;;21.10
68745;BMP180;65497;45.454;11.064;2022-12-07T12:19:25;100450.60;;;21.38
68745;BMP180;65497;45.454;11.064;2022-12-07T12:22:12;100445.40;;;21.70
68745;BMP180;65497;45.454;11.064;2022-12-07T12:24:48;100446.20;;;21.90
68745;BMP180;65497;45.454;11.064;2022-12-07T12:27:28;100438.00;;;22.40
68745;BMP180;65497;45.454;11.064;2022-12-07T12:30:23;100439.20;;;22.20
68745;BMP180;65497;45.454;11.064;2022-12-07T12:33:06;100438.00;;;22.30
68745;BMP180;65497;45.454;11.064;2022-12-07T12:35:39;100439.00;;;22.66
68745;BMP180;65497;45.454;11.064;2022-12-07T12:38:32;100434.60;;;22.80
68745;BMP180;65497;45.454;11.064;2022-12-07T12:41:05;100431.20;;;22.90
68745;BMP180;65497;45.454;11.064;2022-12-07T12:43:53;100427.00;;;22.86
68745;BMP180;65497;45.454;11.064;2022-12-07T12:46:53;100427.20;;;22.70
68745;BMP180;65497;45.454;11.064;2022-12-07T12:53:20;100432.00;;;22.50
68745;BMP180;65497;45.454;11.064;2022-12-07T12:56:28;100432.40;;;22.50
68745;BMP180;65497;45.454;11.064;2022-12-07T12:59:26;100431.40;;;22.50
68745;BMP180;65497;45.454;11.064;2022-12-07T13:02:20;100430.40;;;22.60
68745;BMP180;65497;45.454;11.064;2022-12-07T13:04:58;100427.60;;;22.32
68745;BMP180;65497;45.454;11.064;2022-12-07T13:07:55;100421.80;;;22.46
68745;BMP180;65497;45.454;11.064;2022-12-07T13:10:46;100420.60;;;22.60
68745;BMP180;65497;45.454;11.064;2022-12-07T13:13:39;100416.60;;;22.80
68745;BMP180;65497;45.454;11.064;2022-12-07T13:16:48;100416.80;;;22.70
68745;BMP180;65497;45.454;11.064;2022-12-07T13:19:58;100420.80;;;21.96
68745;BMP180;65497;45.454;11.064;2022-12-07T13:22:55;100415.80;;;21.12
68745;BMP180;65497;45.454;11.064;2022-12-07T13:25:48;100413.60;;;21.00
68745;BMP180;65497;45.454;11.064;2022-12-07T13:28:24;100413.60;;;21.40
68745;BMP180;65497;45.454;11.064;2022-12-07T13:31:14;100412.80;;;21.20
68745;BMP180;65497;45.454;11.064;2022-12-07T13:33:49;100416.80;;;20.70
68745;BMP180;65497;45.454;11.064;2022-12-07T13:36:26;100414.20;;;20.60
68745;BMP180;65497;45.454;11.064;2022-12-07T13:39:10;100419.20;;;20.52
68745;BMP180;65497;45.454;11.064;2022-12-07T13:41:46;100415.20;;;20.30
68745;BMP180;65497;45.454;11.064;2022-12-07T13:44:22;100411.00;;;20.00
68745;BMP180;65497;45.454;11.064;2022-12-07T13:47:07;100411.00;;;20.10
68745;BMP180;65497;45.454;11.064;2022-12-07T13:49:51;100415.60;;;19.76
68745;BMP180;65497;45.454;11.064;2022-12-07T13:52:27;100415.40;;;19.30
68745;BMP180;65497;45.454;11.064;2022-12-07T13:55:13;100418.40;;;18.72
68745;BMP180;65497;45.454;11.064;2022-12-07T13:57:50;100417.20;;;18.20
68745;BMP180;65497;45.454;11.064;2022-12-07T14:00:27;100422.40;;;17.90
68745;BMP180;65497;45.454;11.064;2022-12-07T14:03:03;100428.80;;;17.60
68745;BMP180;65497;45.454;11.064;2022-12-07T14:05:38;100427.20;;;17.30
68745;BMP180;65497;45.454;11.064;2022-12-07T14:08:26;100426.60;;;16.90
68745;BMP180;65497;45.454;11.064;2022-12-07T14:11:02;100429.60;;;16.42
68745;BMP180;65497;45.454;11.064;2022-12-07T14:13:38;100432.00;;;16.10
68745;BMP180;65497;45.454;11.064;2022-12-07T14:16:29;100432.00;;;16.00
68745;BMP180;65497;45.454;11.064;2022-12-07T14:19:06;100424.40;;;15.70
68745;BMP180;65497;45.454;11.064;2022-12-07T14:22:26;100425.40;;;15.48
68745;BMP180;65497;45.454;11.064;2022-12-07T14:25:21;100424.80;;;15.26
68745;BMP180;65497;45.454;11.064;2022-12-07T14:27:57;100426.00;;;15.06
68745;BMP180;65497;45.454;11.064;2022-12-07T14:30:33;100423.40;;;14.68
68745;BMP180;65497;45.454;11.064;2022-12-07T14:33:09;100429.20;;;14.30
68745;BMP180;65497;45.454;11.064;2022-12-07T14:35:42;100436.80;;;14.00
68745;BMP180;65497;45.454;11.064;2022-12-07T14:38:14;100439.40;;;13.80
68745;BMP180;65497;45.454;11.064;2022-12-07T14:40:50;100438.40;;;13.54
68745;BMP180;65497;45.454;11.064;2022-12-07T14:43:23;100439.60;;;13.30
68745;BMP180;65497;45.454;11.064;2022-12-07T14:45:55;100442.60;;;13.02
68745;BMP180;65497;45.454;11.064;2022-12-07T14:48:28;100443.20;;;12.84
68745;BMP180;65497;45.454;11.064;2022-12-07T14:51:20;100445.60;;;12.60
68745;BMP180;65497;45.454;11.064;2022-12-07T14:54:18;100448.80;;;12.40
68745;BMP180;65497;45.454;11.064;2022-12-07T14:56:51;100451.00;;;12.30
68745;BMP180;65497;45.454;11.064;2022-12-07T14:59:24;100455.20;;;12.20
68745;BMP180;65497;45.454;11.064;2022-12-07T15:01:56;100452.60;;;12.10
68745;BMP180;65497;45.454;11.064;2022-12-07T15:04:29;100458.20;;;11.90
68745;BMP180;65497;45.454;11.064;2022-12-07T15:07:04;100457.60;;;11.80
68745;BMP180;65497;45.454;11.064;2022-12-07T15:09:37;100462.20;;;11.58
68745;BMP180;65497;45.454;11.064;2022-12-07T15:12:11;100467.00;;;11.30
68745;BMP180;65497;45.454;11.064;2022-12-07T15:14:45;100468.80;;;11.20